createdAt,value
2022-10-09T00:01:31.864Z,101291.72
2022-10-09T00:04:00.936Z,101291.91
2022-10-09T00:06:31.233Z,101300.39
2022-10-09T00:09:03.648Z,101303.40
2022-10-09T00:11:34.171Z,101309.07
2022-10-09T00:14:03.917Z,101309.08
2022-10-09T00:16:32.579Z,101298.88
2022-10-09T00:19:01.313Z,101311.64
2022-10-09T00:21:32.071Z,101314.99
2022-10-09T00:24:02.770Z,101315.34
2022-10-09T00:26:32.264Z,101318.80
2022-10-09T00:29:01.780Z,101316.40
2022-10-09T00:31:30.564Z,101318.83
2022-10-09T00:33:58.954Z,101321.46
2022-10-09T00:36:27.959Z,101299.02
2022-10-09T00:38:57.012Z,101320.09
2022-10-09T00:41:28.431Z,101320.13
2022-10-09T00:43:59.859Z,101322.73
2022-10-09T00:46:36.709Z,101327.27
2022-10-09T00:49:26.519Z,101327.60
2022-10-09T00:51:57.874Z,101330.31
2022-10-09T01:03:59.236Z,101343.24
2022-10-09T01:15:59.235Z,101351.61
2022-10-09T01:18:37.097Z,101346.70
2022-10-09T01:21:12.175Z,101355.51
2022-10-09T01:24:06.995Z,101356.95
2022-10-09T01:26:59.904Z,101339.76
2022-10-09T01:29:50.900Z,101357.84
2022-10-09T01:32:41.245Z,101360.85
2022-10-09T01:35:44.287Z,101367.39
2022-10-09T01:38:29.693Z,101368.66
2022-10-09T01:40:58.349Z,101377.25
2022-10-09T02:50:59.122Z,101442.73
2022-10-09T02:53:28.178Z,101438.45
2022-10-09T02:55:56.943Z,101445.55
2022-10-09T02:58:25.565Z,101448.78
2022-10-09T03:00:54.830Z,101452.39
2022-10-09T03:03:23.663Z,101456.97
2022-10-09T03:06:01.523Z,101453.05
2022-10-09T03:08:31.025Z,101447.00
2022-10-09T03:10:59.616Z,101458.71
2022-10-09T03:13:28.197Z,101462.04
2022-10-09T03:16:02.989Z,101464.04
2022-10-09T03:18:30.714Z,101467.38
2022-10-09T03:20:59.876Z,101474.73
2022-10-09T03:23:28.599Z,101472.54
2022-10-09T03:25:57.916Z,101477.86
2022-10-09T03:28:27.115Z,101480.13
2022-10-09T03:30:56.373Z,101481.38
2022-10-09T03:33:25.299Z,101483.61
2022-10-09T03:35:53.680Z,101487.67
2022-10-09T03:38:22.080Z,101490.26
2022-10-09T03:40:51.013Z,101488.30
2022-10-09T03:43:19.557Z,101490.30
2022-10-09T03:45:47.991Z,101489.56
2022-10-09T03:48:16.403Z,101495.11
2022-10-09T03:55:12.900Z,101502.57
2022-10-09T03:57:42.007Z,101502.25
2022-10-09T04:00:13.588Z,101509.70
2022-10-09T04:02:42.086Z,101506.27
2022-10-09T04:05:47.219Z,101506.75
2022-10-09T04:09:29.410Z,101508.44
2022-10-09T04:11:57.931Z,101510.36
2022-10-09T04:14:29.447Z,101514.43
2022-10-09T04:50:22.362Z,101534.02
2022-10-09T04:54:02.390Z,101534.77
2022-10-09T04:56:38.026Z,101536.19
2022-10-09T05:03:32.599Z,101552.27
2022-10-09T05:06:02.736Z,101555.45
2022-10-09T05:08:32.807Z,101563.23
2022-10-09T05:11:02.618Z,101564.36
2022-10-09T05:13:32.292Z,101569.95
2022-10-09T05:16:04.238Z,101569.15
2022-10-09T05:18:33.644Z,101549.96
2022-10-09T05:21:05.478Z,101574.23
2022-10-09T05:23:36.341Z,101573.39
2022-10-09T05:26:07.342Z,101581.20
2022-10-09T05:28:38.233Z,101583.22
2022-10-09T05:31:09.782Z,101584.84
2022-10-09T05:33:38.246Z,101573.51
2022-10-09T05:36:08.435Z,101578.16
2022-10-09T05:38:37.074Z,101588.07
2022-10-09T05:41:10.509Z,101598.18
2022-10-09T05:43:40.923Z,101597.60
2022-10-09T05:46:12.152Z,101599.02
2022-10-09T05:48:42.707Z,101601.70
2022-10-09T05:51:14.645Z,101606.79
2022-10-09T05:53:46.339Z,101612.70
2022-10-09T05:56:18.256Z,101612.30
2022-10-09T05:58:50.733Z,101617.06
2022-10-09T06:01:19.760Z,101614.55
2022-10-09T06:03:50.441Z,101607.17
2022-10-09T06:06:20.740Z,101624.42
2022-10-09T06:08:49.750Z,101623.98
2022-10-09T06:11:20.031Z,101627.89
2022-10-09T06:13:49.311Z,101635.34
2022-10-09T06:16:18.601Z,101643.65
2022-10-09T06:18:49.268Z,101649.86
2022-10-09T06:21:18.492Z,101647.79
2022-10-09T06:23:50.710Z,101648.25
2022-10-09T06:26:20.697Z,101649.90
2022-10-09T06:28:49.869Z,101641.84
2022-10-09T06:31:20.873Z,101656.09
2022-10-09T06:33:50.745Z,101659.41
2022-10-09T06:36:21.337Z,101661.48
2022-10-09T06:38:50.831Z,101665.80
2022-10-09T06:41:21.744Z,101669.84
2022-10-09T06:43:51.990Z,101672.73
2022-10-09T06:46:22.341Z,101672.67
2022-10-09T06:48:50.885Z,101679.40
2022-10-09T06:51:21.812Z,101684.63
2022-10-09T06:53:52.542Z,101686.70
2022-10-09T06:56:24.511Z,101687.05
2022-10-09T06:58:53.931Z,101695.27
2022-10-09T07:03:02.100Z,101703.12
2022-10-09T07:05:34.240Z,101707.48
2022-10-09T07:08:06.134Z,101707.38
2022-10-09T07:10:38.114Z,101696.79
2022-10-09T07:13:10.186Z,101714.60
2022-10-09T07:15:48.274Z,101716.71
2022-10-09T07:18:20.219Z,101720.28
2022-10-09T07:20:52.027Z,101725.84
2022-10-09T07:23:24.305Z,101730.05
2022-10-09T07:25:56.599Z,101733.04
2022-10-09T07:28:30.725Z,101727.99
2022-10-09T07:31:05.144Z,101726.58
2022-10-09T07:33:37.534Z,101732.14
2022-10-09T07:36:10.720Z,101729.11
2022-10-09T07:38:42.821Z,101729.62
2022-10-09T07:41:15.490Z,101734.41
2022-10-09T07:43:47.547Z,101734.80
2022-10-09T07:46:21.892Z,101734.73
2022-10-09T07:48:54.227Z,101737.09
2022-10-09T07:51:28.996Z,101738.35
2022-10-09T07:54:02.488Z,101738.80
2022-10-09T07:56:38.084Z,101742.34
2022-10-09T07:59:14.248Z,101741.98
2022-10-09T08:01:50.968Z,101730.33
2022-10-09T08:04:24.594Z,101740.54
2022-10-09T08:06:58.370Z,101744.63
2022-10-09T08:09:30.450Z,101747.86
2022-10-09T08:12:19.973Z,101736.27
2022-10-09T08:14:52.019Z,101752.30
2022-10-09T08:17:23.964Z,101756.21
2022-10-09T08:19:58.179Z,101758.48
2022-10-09T08:22:38.364Z,101763.88
2022-10-09T08:25:11.595Z,101758.91
2022-10-09T08:27:43.774Z,101762.00
2022-10-09T08:30:16.130Z,101761.13
2022-10-09T08:33:22.483Z,101759.96
2022-10-09T08:36:17.545Z,101761.48
2022-10-09T08:38:49.662Z,101761.63
2022-10-09T08:41:34.952Z,101764.89
2022-10-09T08:44:07.364Z,101766.91
2022-10-09T08:46:54.509Z,101773.58
2022-10-09T08:57:35.700Z,101779.19
2022-10-09T09:00:20.347Z,101773.27
2022-10-09T09:03:21.541Z,101765.66
2022-10-09T09:06:01.721Z,101779.64
2022-10-09T09:08:44.908Z,101782.66
2022-10-09T09:11:23.647Z,101781.83
2022-10-09T09:14:04.395Z,101779.98
2022-10-09T09:16:45.474Z,101784.20
2022-10-09T09:19:38.438Z,101782.66
2022-10-09T09:22:14.371Z,101776.64
2022-10-09T09:24:52.110Z,101771.98
2022-10-09T09:27:28.642Z,101763.20
2022-10-09T09:30:14.675Z,101762.91
2022-10-09T09:32:56.557Z,101762.62
2022-10-09T09:35:35.329Z,101766.48
2022-10-09T09:38:07.280Z,101764.88
2022-10-09T09:40:42.231Z,101765.87
2022-10-09T09:43:18.865Z,101764.02
2022-10-09T09:45:53.366Z,101766.36
2022-10-09T09:48:35.838Z,101770.36
2022-10-09T09:51:28.034Z,101774.58
2022-10-09T09:54:04.268Z,101776.22
2022-10-09T09:57:06.847Z,101771.63
2022-10-09T09:59:37.149Z,101779.09
2022-10-09T10:02:16.136Z,101780.71
2022-10-09T10:04:54.414Z,101781.27
2022-10-09T10:07:37.106Z,101784.33
2022-10-09T10:10:22.480Z,101784.18
2022-10-09T10:13:01.574Z,101788.50
2022-10-09T10:15:35.748Z,101779.13
2022-10-09T10:18:13.994Z,101783.98
2022-10-09T10:20:48.450Z,101782.64
2022-10-09T10:23:33.206Z,101778.80
2022-10-09T10:26:11.002Z,101781.70
2022-10-09T10:28:49.951Z,101790.33
2022-10-09T10:31:36.488Z,101794.77
2022-10-09T10:34:15.392Z,101779.20
2022-10-09T10:36:49.292Z,101791.58
2022-10-09T10:39:28.067Z,101791.05
2022-10-09T10:42:02.638Z,101793.48
2022-10-09T10:44:44.396Z,101794.45
2022-10-09T10:47:22.904Z,101796.39
2022-10-09T10:49:55.097Z,101794.33
2022-10-09T10:52:44.386Z,101797.85
2022-10-09T10:55:28.216Z,101793.60
2022-10-09T10:58:09.175Z,101796.95
2022-10-09T11:00:48.150Z,101794.39
2022-10-09T11:03:39.800Z,101800.45
2022-10-09T11:06:23.438Z,101795.27
2022-10-09T11:09:12.922Z,101777.86
2022-10-09T11:11:51.241Z,101792.55
2022-10-09T11:14:39.554Z,101792.77
2022-10-09T11:17:26.592Z,101789.59
2022-10-09T11:20:17.936Z,101795.80
2022-10-09T11:23:02.847Z,101794.77
2022-10-09T11:25:41.301Z,101795.08
2022-10-09T11:28:16.803Z,101788.99
2022-10-09T11:30:54.111Z,101790.30
2022-10-09T11:33:43.425Z,101787.13
2022-10-09T11:36:20.079Z,101784.73
2022-10-09T11:38:59.546Z,101781.19
2022-10-09T11:41:33.713Z,101773.61
2022-10-09T11:44:19.661Z,101775.79
2022-10-09T11:47:01.538Z,101770.88
2022-10-09T11:49:38.645Z,101773.21
2022-10-09T11:52:20.321Z,101769.64
2022-10-09T11:54:52.925Z,101764.77
2022-10-09T11:57:31.073Z,101761.04
2022-10-09T12:00:10.033Z,101759.65
2022-10-09T12:02:44.033Z,101758.45
2022-10-09T12:05:31.301Z,101754.98
2022-10-09T12:08:15.387Z,101752.59
2022-10-09T12:10:54.567Z,101751.91
2022-10-09T12:13:46.106Z,101745.48
2022-10-09T12:16:47.157Z,101748.86
2022-10-09T12:19:23.449Z,101744.83
2022-10-09T12:22:01.970Z,101746.35
2022-10-09T12:24:39.444Z,101744.84
2022-10-09T12:27:20.195Z,101736.16
2022-10-09T12:29:55.747Z,101727.90
2022-10-09T12:32:32.069Z,101740.23
2022-10-09T12:35:13.563Z,101740.94
2022-10-09T12:37:45.495Z,101739.95
2022-10-09T12:40:23.164Z,101738.80
2022-10-09T12:42:57.119Z,101739.23
2022-10-09T12:45:32.032Z,101734.62
2022-10-09T12:48:13.041Z,101737.05
2022-10-09T12:50:45.755Z,101734.80
2022-10-09T12:53:19.142Z,101733.35
2022-10-09T12:55:53.092Z,101734.73
2022-10-09T12:58:27.812Z,101733.60
2022-10-09T13:01:03.471Z,101727.05
2022-10-09T13:03:39.660Z,101725.30
2022-10-09T13:06:19.041Z,101722.73
2022-10-09T13:08:55.620Z,101724.55
2022-10-09T13:11:34.316Z,101723.94
2022-10-09T13:14:07.419Z,101724.88
2022-10-09T13:16:44.439Z,101719.07
2022-10-09T13:19:27.647Z,101710.40
2022-10-09T13:22:20.494Z,101710.25
2022-10-09T13:24:55.610Z,101707.08
2022-10-09T13:27:30.503Z,101703.49
2022-10-09T13:30:03.364Z,101698.92
2022-10-09T13:32:35.292Z,101696.29
2022-10-09T13:35:08.125Z,101700.77
2022-10-09T13:37:40.285Z,101699.91
2022-10-09T13:40:18.779Z,101702.23
2022-10-09T13:42:55.197Z,101700.98
2022-10-09T13:45:27.457Z,101704.80
2022-10-09T13:47:59.646Z,101698.21
2022-10-09T13:50:32.006Z,101696.62
2022-10-09T13:53:04.103Z,101695.37
2022-10-09T13:55:36.301Z,101689.93
2022-10-09T13:58:08.190Z,101697.45
2022-10-09T14:00:40.121Z,101688.15
2022-10-09T14:03:12.306Z,101688.08
2022-10-09T14:05:44.448Z,101689.01
2022-10-09T14:08:16.390Z,101689.53
2022-10-09T14:10:48.319Z,101685.83
2022-10-09T14:13:20.743Z,101691.08
2022-10-09T14:15:53.364Z,101684.30
2022-10-09T14:18:26.125Z,101671.35
2022-10-09T14:20:58.053Z,101685.56
2022-10-09T14:23:29.884Z,101686.67
2022-10-09T14:26:06.272Z,101685.91
2022-10-09T14:28:38.191Z,101688.81
2022-10-09T14:31:10.407Z,101688.30
2022-10-09T14:33:42.497Z,101687.48
2022-10-09T14:36:18.704Z,101689.65
2022-10-09T14:38:51.284Z,101689.51
2022-10-09T14:41:23.508Z,101684.40
2022-10-09T14:43:59.424Z,101687.20
2022-10-09T14:46:34.118Z,101686.16
2022-10-09T14:49:08.232Z,101686.75
2022-10-09T14:51:41.980Z,101685.96
2022-10-09T14:54:14.981Z,101682.67
2022-10-09T14:56:46.875Z,101682.13
2022-10-09T14:59:18.948Z,101682.16
2022-10-09T15:01:50.868Z,101680.66
2022-10-09T15:04:22.697Z,101678.41
2022-10-09T15:06:54.879Z,101673.48
2022-10-09T15:09:27.238Z,101673.46
2022-10-09T15:11:59.326Z,101668.54
2022-10-09T15:14:30.992Z,101668.08
2022-10-09T15:17:03.101Z,101665.40
2022-10-09T15:19:35.930Z,101667.56
2022-10-09T15:22:08.026Z,101669.48
2022-10-09T15:24:40.004Z,101669.84
2022-10-09T15:27:11.997Z,101668.10
2022-10-09T15:29:43.923Z,101666.45
2022-10-09T15:32:15.861Z,101671.28
2022-10-09T15:34:48.100Z,101671.50
2022-10-09T15:37:19.988Z,101668.45
2022-10-09T15:39:52.062Z,101668.20
2022-10-09T15:42:23.980Z,101660.46
2022-10-09T15:44:55.839Z,101672.52
2022-10-09T15:47:50.088Z,101668.45
2022-10-09T15:50:20.641Z,101667.67
2022-10-09T15:52:54.728Z,101669.02
2022-10-09T15:55:26.726Z,101666.89
2022-10-09T15:57:59.459Z,101667.61
2022-10-09T16:00:31.367Z,101663.39
2022-10-09T16:03:03.651Z,101661.75
2022-10-09T16:05:40.307Z,101666.96
2022-10-09T16:08:13.193Z,101662.68
2022-10-09T16:10:48.974Z,101660.06
2022-10-09T16:13:21.679Z,101663.00
2022-10-09T16:15:54.323Z,101661.34
2022-10-09T16:18:27.269Z,101653.59
2022-10-09T16:21:06.749Z,101666.02
2022-10-09T16:23:38.926Z,101664.50
2022-10-09T16:26:11.496Z,101671.34
2022-10-09T16:28:43.549Z,101673.55
2022-10-09T16:31:22.084Z,101672.30
2022-10-09T16:33:54.410Z,101674.36
2022-10-09T16:36:26.933Z,101673.41
2022-10-09T16:39:00.242Z,101677.30
2022-10-09T16:41:38.371Z,101678.79
2022-10-09T16:44:18.342Z,101680.38
2022-10-09T16:46:50.234Z,101670.40
2022-10-09T16:49:24.312Z,101683.23
2022-10-09T16:52:09.168Z,101681.77
2022-10-09T16:54:41.104Z,101682.91
2022-10-09T17:02:40.566Z,101681.44
2022-10-09T17:04:52.293Z,101683.63
2022-10-09T17:05:20.373Z,101684.63
2022-10-09T17:08:05.838Z,101685.45
2022-10-09T17:10:43.745Z,101690.40
2022-10-09T17:13:15.697Z,101689.97
2022-10-09T17:15:47.840Z,101692.40
2022-10-09T17:18:21.052Z,101696.63
2022-10-09T17:20:53.050Z,101696.19
2022-10-09T17:23:25.657Z,101697.88
2022-10-09T17:25:58.295Z,101699.23
2022-10-09T17:28:30.276Z,101696.38
2022-10-09T17:31:05.552Z,101696.21
2022-10-09T17:33:41.273Z,101697.94
2022-10-09T17:36:14.649Z,101700.18
2022-10-09T17:38:47.298Z,101702.75
2022-10-09T17:41:21.463Z,101701.54
2022-10-09T17:43:55.280Z,101698.36
2022-10-09T17:46:28.700Z,101697.08
2022-10-09T17:49:02.088Z,101692.86
2022-10-09T17:51:36.250Z,101698.13
2022-10-09T17:54:12.448Z,101699.86
2022-10-09T17:56:45.107Z,101698.02
2022-10-09T17:59:17.008Z,101696.27
2022-10-09T18:01:49.096Z,101698.63
2022-10-09T18:04:21.035Z,101699.83
2022-10-09T18:06:53.010Z,101687.20
2022-10-09T18:09:25.102Z,101700.31
2022-10-09T18:11:57.254Z,101699.56
2022-10-09T19:11:15.588Z,101682.27
2022-10-09T19:38:41.876Z,101678.52
2022-10-09T20:29:21.389Z,101673.32
2022-10-09T20:32:20.662Z,101675.42
2022-10-09T20:36:10.664Z,101675.73
2022-10-09T20:41:33.199Z,101680.03
2022-10-09T20:44:34.016Z,101674.80
2022-10-09T20:47:13.528Z,101674.23
2022-10-09T22:36:18.611Z,101621.02
2022-10-09T22:38:48.128Z,101621.27
2022-10-09T22:41:19.002Z,101615.56
2022-10-09T22:43:49.701Z,101616.60
2022-10-09T22:46:20.547Z,101618.68
2022-10-09T22:48:49.396Z,101615.59
2022-10-09T22:51:19.413Z,101616.27
2022-10-09T22:53:49.253Z,101614.86
2022-10-09T22:56:19.343Z,101609.05
2022-10-09T22:58:49.331Z,101613.19
2022-10-09T23:01:26.585Z,101609.44
2022-10-09T23:03:55.258Z,101606.14
2022-10-09T23:06:24.119Z,101604.67
2022-10-09T23:08:52.992Z,101608.08
2022-10-09T23:11:22.541Z,101603.98
2022-10-09T23:13:55.073Z,101600.13
2022-10-09T23:16:25.116Z,101596.79
2022-10-09T23:18:54.160Z,101569.59
2022-10-09T23:21:23.953Z,101593.92
2022-10-09T23:23:53.047Z,101589.59
2022-10-09T23:26:23.908Z,101577.72
2022-10-09T23:28:54.086Z,101594.30
2022-10-09T23:31:23.510Z,101590.22
2022-10-09T23:33:52.126Z,101586.33
2022-10-09T23:36:22.674Z,101586.96
2022-10-09T23:38:51.522Z,101586.39
2022-10-09T23:41:22.851Z,101584.77
2022-10-09T23:43:51.711Z,101590.41
2022-10-09T23:46:22.100Z,101584.83
2022-10-09T23:48:51.581Z,101588.77
2022-10-09T23:51:21.498Z,101583.05
2022-10-09T23:53:50.362Z,101583.25
2022-10-09T23:56:21.430Z,101584.05
2022-10-09T23:58:50.381Z,101580.83
